Russia, New York
Current Conditions -  °F | °C
As of 5:53 AM on Friday 31 Oct 2014 (Local Time) from KRME Reporting Station
Clear Clear  
Wind Chill: 30°   Ceiling: Unl
Heat Index: 30°   Visibility: 10mi
Dew Point: 30°   Wind: 3mph
Humidity: 100%   Direction: 130°SE
Pressure: 30.04"   Gusts: NA
Location:  43.1704°N, 75.068°W
Report Text: KRME 310953Z AUTO 13003KT 10SM CLR M01/M01 A3004 RMK AO2 SLP174 T10111011
Loading
Personal Weather Stations






























Interactive Weather Map
Tropical Storm Tracking
New forecast layout! Learn more

10-Day Weather Forecast

Advertisements
Track Severe Weather on mobile